sensor_id;sensor_type;location;lat;lon;timestamp;P1;durP1;ratioP1;P2;durP2;ratioP2
30000;SDS011;16845;48.670;9.000;2022-09-17T00:01:07;7.38;;;1.27;;
30000;SDS011;16845;48.670;9.000;2022-09-17T00:03:36;1.27;;;1.08;;
30000;SDS011;16845;48.670;9.000;2022-09-17T00:06:05;1.27;;;1.17;;
30000;SDS011;16845;48.670;9.000;2022-09-17T00:08:35;5.07;;;1.20;;
30000;SDS011;16845;48.670;9.000;2022-09-17T00:11:09;3.30;;;1.27;;
30000;SDS011;16845;48.670;9.000;2022-09-17T00:13:39;4.22;;;1.27;;
30000;SDS011;16845;48.670;9.000;2022-09-17T00:16:07;2.65;;;1.20;;
30000;SDS011;16845;48.670;9.000;2022-09-17T00:18:35;8.80;;;1.52;;
30000;SDS011;16845;48.670;9.000;2022-09-17T00:21:07;2.47;;;0.95;;
30000;SDS011;16845;48.670;9.000;2022-09-17T00:23:43;1.95;;;1.05;;
30000;SDS011;16845;48.670;9.000;2022-09-17T00:26:12;2.28;;;1.30;;
30000;SDS011;16845;48.670;9.000;2022-09-17T00:28:41;1.48;;;1.10;;
30000;SDS011;16845;48.670;9.000;2022-09-17T00:31:13;4.80;;;1.27;;
30000;SDS011;16845;48.670;9.000;2022-09-17T00:33:41;4.95;;;1.15;;
30000;SDS011;16845;48.670;9.000;2022-09-17T00:36:09;3.78;;;1.25;;
30000;SDS011;16845;48.670;9.000;2022-09-17T00:38:37;8.38;;;1.63;;
30000;SDS011;16845;48.670;9.000;2022-09-17T00:41:05;4.25;;;1.30;;
30000;SDS011;16845;48.670;9.000;2022-09-17T00:43:36;2.10;;;1.30;;
30000;SDS011;16845;48.670;9.000;2022-09-17T00:46:10;1.58;;;1.40;;
30000;SDS011;16845;48.670;9.000;2022-09-17T00:48:47;2.40;;;1.58;;
30000;SDS011;16845;48.670;9.000;2022-09-17T00:51:16;3.08;;;1.25;;
30000;SDS011;16845;48.670;9.000;2022-09-17T00:53:47;1.50;;;1.17;;
30000;SDS011;16845;48.670;9.000;2022-09-17T00:56:17;2.15;;;1.35;;
30000;SDS011;16845;48.670;9.000;2022-09-17T00:58:50;3.40;;;1.70;;
30000;SDS011;16845;48.670;9.000;2022-09-17T01:01:20;3.25;;;1.45;;
30000;SDS011;16845;48.670;9.000;2022-09-17T01:03:48;3.10;;;1.65;;
30000;SDS011;16845;48.670;9.000;2022-09-17T01:06:19;3.55;;;1.23;;
30000;SDS011;16845;48.670;9.000;2022-09-17T01:08:58;6.68;;;1.17;;
30000;SDS011;16845;48.670;9.000;2022-09-17T01:11:40;2.53;;;1.40;;
30000;SDS011;16845;48.670;9.000;2022-09-17T01:14:25;2.83;;;1.40;;
30000;SDS011;16845;48.670;9.000;2022-09-17T01:17:05;5.30;;;1.30;;
30000;SDS011;16845;48.670;9.000;2022-09-17T01:22:58;4.80;;;1.67;;
30000;SDS011;16845;48.670;9.000;2022-09-17T01:25:47;2.55;;;1.40;;
30000;SDS011;16845;48.670;9.000;2022-09-17T01:28:26;1.85;;;1.33;;
30000;SDS011;16845;48.670;9.000;2022-09-17T01:31:11;1.35;;;1.17;;
30000;SDS011;16845;48.670;9.000;2022-09-17T01:33:53;4.63;;;1.58;;
30000;SDS011;16845;48.670;9.000;2022-09-17T01:39:27;2.17;;;1.40;;
30000;SDS011;16845;48.670;9.000;2022-09-17T01:42:03;4.28;;;1.60;;
30000;SDS011;16845;48.670;9.000;2022-09-17T01:44:38;8.13;;;1.70;;
30000;SDS011;16845;48.670;9.000;2022-09-17T01:47:14;6.50;;;1.60;;
30000;SDS011;16845;48.670;9.000;2022-09-17T01:49:46;2.13;;;1.33;;
30000;SDS011;16845;48.670;9.000;2022-09-17T01:52:16;13.98;;;2.40;;
30000;SDS011;16845;48.670;9.000;2022-09-17T01:54:48;2.97;;;1.90;;
30000;SDS011;16845;48.670;9.000;2022-09-17T01:57:21;4.90;;;1.35;;
30000;SDS011;16845;48.670;9.000;2022-09-17T01:59:54;5.05;;;1.58;;
30000;SDS011;16845;48.670;9.000;2022-09-17T02:02:28;4.18;;;1.42;;
30000;SDS011;16845;48.670;9.000;2022-09-17T02:05:01;4.13;;;1.35;;
30000;SDS011;16845;48.670;9.000;2022-09-17T02:07:31;2.13;;;1.30;;
30000;SDS011;16845;48.670;9.000;2022-09-17T02:10:05;5.97;;;1.50;;
30000;SDS011;16845;48.670;9.000;2022-09-17T02:12:37;3.78;;;1.40;;
30000;SDS011;16845;48.670;9.000;2022-09-17T02:15:11;4.40;;;1.60;;
30000;SDS011;16845;48.670;9.000;2022-09-17T02:17:47;5.68;;;1.50;;
30000;SDS011;16845;48.670;9.000;2022-09-17T02:20:17;1.98;;;1.30;;
30000;SDS011;16845;48.670;9.000;2022-09-17T02:22:51;6.65;;;1.45;;
30000;SDS011;16845;48.670;9.000;2022-09-17T02:25:23;4.22;;;1.80;;
30000;SDS011;16845;48.670;9.000;2022-09-17T02:27:57;5.50;;;1.77;;
30000;SDS011;16845;48.670;9.000;2022-09-17T02:30:29;4.65;;;1.20;;
30000;SDS011;16845;48.670;9.000;2022-09-17T02:32:59;3.25;;;1.40;;
30000;SDS011;16845;48.670;9.000;2022-09-17T02:35:29;5.68;;;1.70;;
30000;SDS011;16845;48.670;9.000;2022-09-17T02:37:59;3.15;;;1.48;;
30000;SDS011;16845;48.670;9.000;2022-09-17T02:40:28;2.85;;;1.75;;
30000;SDS011;16845;48.670;9.000;2022-09-17T02:43:05;7.65;;;1.58;;
30000;SDS011;16845;48.670;9.000;2022-09-17T02:45:40;4.85;;;1.58;;
30000;SDS011;16845;48.670;9.000;2022-09-17T02:48:22;5.75;;;1.80;;
30000;SDS011;16845;48.670;9.000;2022-09-17T02:51:04;10.98;;;1.55;;
30000;SDS011;16845;48.670;9.000;2022-09-17T02:53:53;6.75;;;1.42;;
30000;SDS011;16845;48.670;9.000;2022-09-17T02:56:26;4.68;;;1.65;;
30000;SDS011;16845;48.670;9.000;2022-09-17T02:59:08;7.20;;;1.80;;
30000;SDS011;16845;48.670;9.000;2022-09-17T03:01:41;10.48;;;1.60;;
30000;SDS011;16845;48.670;9.000;2022-09-17T03:04:14;36.92;;;3.78;;
30000;SDS011;16845;48.670;9.000;2022-09-17T03:06:45;5.13;;;1.55;;
30000;SDS011;16845;48.670;9.000;2022-09-17T03:09:14;4.75;;;1.65;;
30000;SDS011;16845;48.670;9.000;2022-09-17T03:11:42;5.10;;;1.70;;
30000;SDS011;16845;48.670;9.000;2022-09-17T03:14:10;9.27;;;1.73;;
30000;SDS011;16845;48.670;9.000;2022-09-17T03:16:38;4.75;;;1.38;;
30000;SDS011;16845;48.670;9.000;2022-09-17T03:19:06;8.27;;;1.85;;
30000;SDS011;16845;48.670;9.000;2022-09-17T03:21:35;3.75;;;1.30;;
30000;SDS011;16845;48.670;9.000;2022-09-17T03:24:03;15.10;;;1.80;;
30000;SDS011;16845;48.670;9.000;2022-09-17T03:26:31;14.88;;;2.03;;
30000;SDS011;16845;48.670;9.000;2022-09-17T03:28:59;12.00;;;2.22;;
30000;SDS011;16845;48.670;9.000;2022-09-17T03:31:27;6.25;;;1.98;;
30000;SDS011;16845;48.670;9.000;2022-09-17T03:33:55;5.93;;;1.67;;
30000;SDS011;16845;48.670;9.000;2022-09-17T03:36:24;2.13;;;1.05;;
30000;SDS011;16845;48.670;9.000;2022-09-17T03:38:54;8.40;;;1.70;;
30000;SDS011;16845;48.670;9.000;2022-09-17T03:41:22;8.18;;;1.30;;
30000;SDS011;16845;48.670;9.000;2022-09-17T03:43:50;5.88;;;1.42;;
30000;SDS011;16845;48.670;9.000;2022-09-17T03:46:19;6.10;;;1.60;;
30000;SDS011;16845;48.670;9.000;2022-09-17T03:48:47;6.85;;;1.75;;
30000;SDS011;16845;48.670;9.000;2022-09-17T03:51:15;8.98;;;1.67;;
30000;SDS011;16845;48.670;9.000;2022-09-17T03:53:43;9.27;;;1.40;;
30000;SDS011;16845;48.670;9.000;2022-09-17T03:56:12;5.93;;;1.65;;
30000;SDS011;16845;48.670;9.000;2022-09-17T03:58:40;6.40;;;1.83;;
30000;SDS011;16845;48.670;9.000;2022-09-17T04:01:08;5.38;;;1.67;;
30000;SDS011;16845;48.670;9.000;2022-09-17T04:03:36;4.95;;;1.70;;
30000;SDS011;16845;48.670;9.000;2022-09-17T04:06:04;3.78;;;1.73;;
30000;SDS011;16845;48.670;9.000;2022-09-17T04:08:32;10.15;;;1.83;;
30000;SDS011;16845;48.670;9.000;2022-09-17T04:11:01;11.15;;;1.73;;
30000;SDS011;16845;48.670;9.000;2022-09-17T04:13:31;8.40;;;1.67;;
30000;SDS011;16845;48.670;9.000;2022-09-17T04:15:59;5.63;;;1.65;;
30000;SDS011;16845;48.670;9.000;2022-09-17T04:18:27;8.68;;;2.15;;
30000;SDS011;16845;48.670;9.000;2022-09-17T04:20:55;6.70;;;2.03;;
30000;SDS011;16845;48.670;9.000;2022-09-17T04:23:23;8.52;;;2.38;;
30000;SDS011;16845;48.670;9.000;2022-09-17T04:25:51;6.20;;;1.85;;
30000;SDS011;16845;48.670;9.000;2022-09-17T04:28:18;7.57;;;1.70;;
30000;SDS011;16845;48.670;9.000;2022-09-17T04:30:48;4.30;;;1.73;;
30000;SDS011;16845;48.670;9.000;2022-09-17T04:33:16;4.20;;;1.65;;
30000;SDS011;16845;48.670;9.000;2022-09-17T04:35:44;10.18;;;1.67;;
30000;SDS011;16845;48.670;9.000;2022-09-17T04:38:12;10.65;;;1.90;;
30000;SDS011;16845;48.670;9.000;2022-09-17T04:40:43;12.93;;;2.33;;
30000;SDS011;16845;48.670;9.000;2022-09-17T04:43:12;6.35;;;2.60;;
30000;SDS011;16845;48.670;9.000;2022-09-17T04:45:40;6.97;;;1.80;;
30000;SDS011;16845;48.670;9.000;2022-09-17T04:48:09;13.18;;;2.08;;
30000;SDS011;16845;48.670;9.000;2022-09-17T04:50:37;6.05;;;1.77;;
30000;SDS011;16845;48.670;9.000;2022-09-17T04:53:05;2.67;;;1.52;;
30000;SDS011;16845;48.670;9.000;2022-09-17T04:55:33;10.75;;;1.95;;
30000;SDS011;16845;48.670;9.000;2022-09-17T04:58:01;12.25;;;2.58;;
30000;SDS011;16845;48.670;9.000;2022-09-17T05:00:29;9.68;;;2.15;;
30000;SDS011;16845;48.670;9.000;2022-09-17T05:02:57;12.88;;;2.22;;
30000;SDS011;16845;48.670;9.000;2022-09-17T05:05:26;7.07;;;2.08;;
30000;SDS011;16845;48.670;9.000;2022-09-17T05:07:54;5.70;;;1.75;;
30000;SDS011;16845;48.670;9.000;2022-09-17T05:10:22;9.65;;;2.25;;
30000;SDS011;16845;48.670;9.000;2022-09-17T05:12:51;19.25;;;3.78;;
30000;SDS011;16845;48.670;9.000;2022-09-17T05:15:20;6.15;;;2.40;;
30000;SDS011;16845;48.670;9.000;2022-09-17T05:17:49;15.43;;;2.35;;
30000;SDS011;16845;48.670;9.000;2022-09-17T05:20:17;5.47;;;2.00;;
30000;SDS011;16845;48.670;9.000;2022-09-17T05:22:47;17.30;;;2.85;;
30000;SDS011;16845;48.670;9.000;2022-09-17T05:25:17;2.67;;;1.40;;
30000;SDS011;16845;48.670;9.000;2022-09-17T05:27:49;10.68;;;2.42;;
30000;SDS011;16845;48.670;9.000;2022-09-17T05:30:18;9.18;;;2.30;;
30000;SDS011;16845;48.670;9.000;2022-09-17T05:32:46;12.65;;;2.97;;
30000;SDS011;16845;48.670;9.000;2022-09-17T05:35:14;15.10;;;2.15;;
30000;SDS011;16845;48.670;9.000;2022-09-17T05:37:42;9.95;;;1.95;;
30000;SDS011;16845;48.670;9.000;2022-09-17T05:40:11;14.48;;;2.45;;
30000;SDS011;16845;48.670;9.000;2022-09-17T05:42:39;9.52;;;2.30;;
30000;SDS011;16845;48.670;9.000;2022-09-17T05:45:07;8.07;;;3.15;;
30000;SDS011;16845;48.670;9.000;2022-09-17T05:47:35;12.73;;;2.28;;
30000;SDS011;16845;48.670;9.000;2022-09-17T05:50:04;12.85;;;2.17;;
30000;SDS011;16845;48.670;9.000;2022-09-17T05:52:32;8.32;;;2.40;;
30000;SDS011;16845;48.670;9.000;2022-09-17T05:55:00;8.85;;;2.83;;
30000;SDS011;16845;48.670;9.000;2022-09-17T05:57:30;7.43;;;2.08;;
30000;SDS011;16845;48.670;9.000;2022-09-17T05:59:57;7.38;;;2.95;;
30000;SDS011;16845;48.670;9.000;2022-09-17T06:02:25;8.02;;;3.45;;
30000;SDS011;16845;48.670;9.000;2022-09-17T06:04:53;6.20;;;2.00;;
30000;SDS011;16845;48.670;9.000;2022-09-17T06:07:21;6.45;;;2.10;;
30000;SDS011;16845;48.670;9.000;2022-09-17T06:09:49;13.88;;;2.38;;
30000;SDS011;16845;48.670;9.000;2022-09-17T06:12:17;6.28;;;2.15;;
30000;SDS011;16845;48.670;9.000;2022-09-17T06:14:46;10.88;;;4.38;;
30000;SDS011;16845;48.670;9.000;2022-09-17T06:17:14;6.43;;;1.98;;
30000;SDS011;16845;48.670;9.000;2022-09-17T06:19:47;6.53;;;1.80;;
30000;SDS011;16845;48.670;9.000;2022-09-17T06:22:16;5.57;;;1.90;;
30000;SDS011;16845;48.670;9.000;2022-09-17T06:24:45;4.35;;;1.80;;
30000;SDS011;16845;48.670;9.000;2022-09-17T06:27:13;9.70;;;2.30;;
30000;SDS011;16845;48.670;9.000;2022-09-17T06:29:41;8.63;;;2.05;;
30000;SDS011;16845;48.670;9.000;2022-09-17T06:32:10;5.15;;;1.92;;
30000;SDS011;16845;48.670;9.000;2022-09-17T06:34:40;6.43;;;2.17;;
30000;SDS011;16845;48.670;9.000;2022-09-17T06:37:08;3.95;;;1.73;;
30000;SDS011;16845;48.670;9.000;2022-09-17T06:39:36;7.85;;;1.48;;
30000;SDS011;16845;48.670;9.000;2022-09-17T06:42:05;9.70;;;2.05;;
30000;SDS011;16845;48.670;9.000;2022-09-17T06:44:33;3.28;;;2.00;;
30000;SDS011;16845;48.670;9.000;2022-09-17T06:47:01;7.38;;;1.60;;
30000;SDS011;16845;48.670;9.000;2022-09-17T06:49:30;6.95;;;1.70;;
30000;SDS011;16845;48.670;9.000;2022-09-17T06:51:58;11.90;;;2.60;;
30000;SDS011;16845;48.670;9.000;2022-09-17T06:54:26;7.65;;;2.05;;
30000;SDS011;16845;48.670;9.000;2022-09-17T06:56:54;5.53;;;1.88;;
30000;SDS011;16845;48.670;9.000;2022-09-17T06:59:22;5.07;;;1.98;;
30000;SDS011;16845;48.670;9.000;2022-09-17T07:01:50;7.55;;;2.35;;
30000;SDS011;16845;48.670;9.000;2022-09-17T07:04:18;2.50;;;1.50;;
30000;SDS011;16845;48.670;9.000;2022-09-17T07:06:47;8.50;;;1.70;;
30000;SDS011;16845;48.670;9.000;2022-09-17T07:09:15;11.55;;;1.95;;
30000;SDS011;16845;48.670;9.000;2022-09-17T07:11:43;9.57;;;2.20;;
30000;SDS011;16845;48.670;9.000;2022-09-17T07:14:11;7.82;;;1.98;;
30000;SDS011;16845;48.670;9.000;2022-09-17T07:16:39;8.82;;;2.65;;
30000;SDS011;16845;48.670;9.000;2022-09-17T07:19:07;4.50;;;2.00;;
30000;SDS011;16845;48.670;9.000;2022-09-17T07:21:36;3.78;;;2.10;;
30000;SDS011;16845;48.670;9.000;2022-09-17T07:24:05;8.07;;;2.00;;
30000;SDS011;16845;48.670;9.000;2022-09-17T07:26:33;4.97;;;1.90;;
30000;SDS011;16845;48.670;9.000;2022-09-17T07:29:01;4.40;;;2.30;;
30000;SDS011;16845;48.670;9.000;2022-09-17T07:31:29;8.75;;;2.35;;
30000;SDS011;16845;48.670;9.000;2022-09-17T07:33:57;5.93;;;2.00;;
30000;SDS011;16845;48.670;9.000;2022-09-17T07:36:26;3.72;;;1.63;;
30000;SDS011;16845;48.670;9.000;2022-09-17T07:38:54;4.15;;;2.53;;
30000;SDS011;16845;48.670;9.000;2022-09-17T07:41:23;5.35;;;2.10;;
30000;SDS011;16845;48.670;9.000;2022-09-17T07:43:52;5.30;;;1.70;;
30000;SDS011;16845;48.670;9.000;2022-09-17T07:46:20;7.03;;;2.55;;
30000;SDS011;16845;48.670;9.000;2022-09-17T07:48:48;8.45;;;2.20;;
30000;SDS011;16845;48.670;9.000;2022-09-17T07:51:17;3.50;;;1.90;;
30000;SDS011;16845;48.670;9.000;2022-09-17T07:53:49;4.60;;;2.03;;
30000;SDS011;16845;48.670;9.000;2022-09-17T07:56:17;4.78;;;1.85;;
30000;SDS011;16845;48.670;9.000;2022-09-17T07:58:46;6.07;;;1.98;;
30000;SDS011;16845;48.670;9.000;2022-09-17T08:01:14;5.32;;;2.25;;
30000;SDS011;16845;48.670;9.000;2022-09-17T08:03:46;6.82;;;2.20;;
30000;SDS011;16845;48.670;9.000;2022-09-17T08:06:16;4.10;;;2.15;;
30000;SDS011;16845;48.670;9.000;2022-09-17T08:08:46;5.68;;;2.28;;
30000;SDS011;16845;48.670;9.000;2022-09-17T08:11:16;4.55;;;3.05;;
30000;SDS011;16845;48.670;9.000;2022-09-17T08:14:08;5.60;;;2.08;;
30000;SDS011;16845;48.670;9.000;2022-09-17T08:16:37;7.32;;;1.88;;
30000;SDS011;16845;48.670;9.000;2022-09-17T08:19:05;5.97;;;2.40;;
30000;SDS011;16845;48.670;9.000;2022-09-17T08:21:35;4.35;;;2.40;;
30000;SDS011;16845;48.670;9.000;2022-09-17T08:24:04;10.20;;;3.00;;
30000;SDS011;16845;48.670;9.000;2022-09-17T08:26:32;6.88;;;2.70;;
30000;SDS011;16845;48.670;9.000;2022-09-17T08:29:01;5.00;;;2.45;;
30000;SDS011;16845;48.670;9.000;2022-09-17T08:31:31;4.75;;;3.25;;
30000;SDS011;16845;48.670;9.000;2022-09-17T08:33:59;8.27;;;2.45;;
30000;SDS011;16845;48.670;9.000;2022-09-17T08:36:26;5.10;;;2.10;;
30000;SDS011;16845;48.670;9.000;2022-09-17T08:38:55;9.38;;;2.22;;
30000;SDS011;16845;48.670;9.000;2022-09-17T08:41:25;5.57;;;2.65;;
30000;SDS011;16845;48.670;9.000;2022-09-17T08:44:06;6.22;;;2.40;;
30000;SDS011;16845;48.670;9.000;2022-09-17T08:46:46;7.53;;;2.40;;
30000;SDS011;16845;48.670;9.000;2022-09-17T08:49:19;5.15;;;2.30;;
30000;SDS011;16845;48.670;9.000;2022-09-17T08:52:00;7.93;;;2.38;;
30000;SDS011;16845;48.670;9.000;2022-09-17T08:54:39;7.80;;;2.50;;
30000;SDS011;16845;48.670;9.000;2022-09-17T08:57:16;5.53;;;2.25;;
30000;SDS011;16845;48.670;9.000;2022-09-17T08:59:52;11.82;;;3.25;;
30000;SDS011;16845;48.670;9.000;2022-09-17T09:02:31;5.80;;;2.60;;
30000;SDS011;16845;48.670;9.000;2022-09-17T09:05:09;8.65;;;2.80;;
30000;SDS011;16845;48.670;9.000;2022-09-17T09:07:41;14.63;;;3.38;;
30000;SDS011;16845;48.670;9.000;2022-09-17T09:10:14;11.73;;;2.95;;
30000;SDS011;16845;48.670;9.000;2022-09-17T09:12:47;15.82;;;3.83;;
30000;SDS011;16845;48.670;9.000;2022-09-17T09:15:22;9.75;;;3.05;;
30000;SDS011;16845;48.670;9.000;2022-09-17T09:18:03;14.50;;;3.45;;
30000;SDS011;16845;48.670;9.000;2022-09-17T09:20:48;13.15;;;3.53;;
30000;SDS011;16845;48.670;9.000;2022-09-17T09:23:19;12.45;;;3.00;;
30000;SDS011;16845;48.670;9.000;2022-09-17T09:25:54;16.52;;;2.85;;
30000;SDS011;16845;48.670;9.000;2022-09-17T09:28:41;11.18;;;2.97;;
30000;SDS011;16845;48.670;9.000;2022-09-17T09:31:40;19.38;;;4.95;;
30000;SDS011;16845;48.670;9.000;2022-09-17T09:34:21;12.10;;;3.03;;
30000;SDS011;16845;48.670;9.000;2022-09-17T09:36:50;13.38;;;2.75;;
30000;SDS011;16845;48.670;9.000;2022-09-17T09:39:21;14.70;;;3.90;;
30000;SDS011;16845;48.670;9.000;2022-09-17T09:42:09;14.63;;;3.03;;
30000;SDS011;16845;48.670;9.000;2022-09-17T09:44:47;6.45;;;2.33;;
30000;SDS011;16845;48.670;9.000;2022-09-17T09:47:28;10.60;;;3.15;;
30000;SDS011;16845;48.670;9.000;2022-09-17T09:50:16;8.80;;;2.75;;
30000;SDS011;16845;48.670;9.000;2022-09-17T09:53:09;7.72;;;2.05;;
30000;SDS011;16845;48.670;9.000;2022-09-17T09:55:52;7.82;;;2.90;;
30000;SDS011;16845;48.670;9.000;2022-09-17T09:58:41;7.78;;;2.08;;
30000;SDS011;16845;48.670;9.000;2022-09-17T10:01:10;10.15;;;2.65;;
30000;SDS011;16845;48.670;9.000;2022-09-17T10:03:41;9.25;;;2.78;;
30000;SDS011;16845;48.670;9.000;2022-09-17T10:06:13;9.05;;;2.28;;
30000;SDS011;16845;48.670;9.000;2022-09-17T10:09:07;9.65;;;3.50;;
30000;SDS011;16845;48.670;9.000;2022-09-17T10:11:39;8.00;;;2.13;;
30000;SDS011;16845;48.670;9.000;2022-09-17T10:14:15;11.65;;;3.00;;
30000;SDS011;16845;48.670;9.000;2022-09-17T10:16:49;7.95;;;2.08;;
30000;SDS011;16845;48.670;9.000;2022-09-17T10:19:36;14.13;;;3.60;;
30000;SDS011;16845;48.670;9.000;2022-09-17T10:22:16;9.40;;;2.70;;
30000;SDS011;16845;48.670;9.000;2022-09-17T10:24:54;6.53;;;2.10;;
30000;SDS011;16845;48.670;9.000;2022-09-17T10:27:25;8.07;;;1.90;;
30000;SDS011;16845;48.670;9.000;2022-09-17T10:29:59;8.02;;;2.35;;
30000;SDS011;16845;48.670;9.000;2022-09-17T10:32:30;11.88;;;2.33;;
30000;SDS011;16845;48.670;9.000;2022-09-17T10:34:58;8.60;;;2.20;;
30000;SDS011;16845;48.670;9.000;2022-09-17T10:37:33;4.63;;;1.70;;
30000;SDS011;16845;48.670;9.000;2022-09-17T10:40:28;14.07;;;2.10;;
30000;SDS011;16845;48.670;9.000;2022-09-17T10:45:54;4.25;;;1.70;;
30000;SDS011;16845;48.670;9.000;2022-09-17T10:48:25;4.55;;;2.03;;
30000;SDS011;16845;48.670;9.000;2022-09-17T10:50:57;4.07;;;1.60;;
30000;SDS011;16845;48.670;9.000;2022-09-17T10:53:28;7.28;;;1.90;;
30000;SDS011;16845;48.670;9.000;2022-09-17T10:56:00;6.85;;;1.70;;
30000;SDS011;16845;48.670;9.000;2022-09-17T10:58:42;6.75;;;1.40;;
30000;SDS011;16845;48.670;9.000;2022-09-17T11:01:23;7.22;;;1.63;;
30000;SDS011;16845;48.670;9.000;2022-09-17T11:04:05;6.65;;;1.75;;
30000;SDS011;16845;48.670;9.000;2022-09-17T11:09:51;6.28;;;1.67;;
30000;SDS011;16845;48.670;9.000;2022-09-17T11:12:37;6.60;;;1.67;;
30000;SDS011;16845;48.670;9.000;2022-09-17T11:15:16;7.03;;;1.40;;
30000;SDS011;16845;48.670;9.000;2022-09-17T11:18:00;6.13;;;1.83;;
30000;SDS011;16845;48.670;9.000;2022-09-17T11:20:55;4.18;;;1.55;;
30000;SDS011;16845;48.670;9.000;2022-09-17T11:23:45;4.55;;;1.40;;
30000;SDS011;16845;48.670;9.000;2022-09-17T11:26:28;7.35;;;1.45;;
30000;SDS011;16845;48.670;9.000;2022-09-17T11:29:05;4.00;;;1.45;;
30000;SDS011;16845;48.670;9.000;2022-09-17T11:31:47;5.25;;;1.58;;
30000;SDS011;16845;48.670;9.000;2022-09-17T11:34:23;5.53;;;1.30;;
30000;SDS011;16845;48.670;9.000;2022-09-17T11:36:57;5.07;;;1.33;;
30000;SDS011;16845;48.670;9.000;2022-09-17T11:39:32;5.70;;;1.77;;
30000;SDS011;16845;48.670;9.000;2022-09-17T11:42:08;4.13;;;1.45;;
30000;SDS011;16845;48.670;9.000;2022-09-17T11:44:42;5.57;;;1.27;;
30000;SDS011;16845;48.670;9.000;2022-09-17T11:47:15;5.43;;;1.35;;
30000;SDS011;16845;48.670;9.000;2022-09-17T11:49:48;4.18;;;1.45;;
30000;SDS011;16845;48.670;9.000;2022-09-17T11:52:20;9.40;;;1.30;;
30000;SDS011;16845;48.670;9.000;2022-09-17T11:54:51;4.50;;;1.10;;
30000;SDS011;16845;48.670;9.000;2022-09-17T11:57:24;4.30;;;1.20;;
30000;SDS011;16845;48.670;9.000;2022-09-17T11:59:58;3.80;;;1.30;;
30000;SDS011;16845;48.670;9.000;2022-09-17T12:02:36;5.13;;;1.20;;
30000;SDS011;16845;48.670;9.000;2022-09-17T12:05:13;5.22;;;1.20;;
30000;SDS011;16845;48.670;9.000;2022-09-17T12:07:47;4.10;;;1.20;;
30000;SDS011;16845;48.670;9.000;2022-09-17T12:10:28;6.18;;;1.10;;
30000;SDS011;16845;48.670;9.000;2022-09-17T12:13:02;3.67;;;1.00;;
30000;SDS011;16845;48.670;9.000;2022-09-17T12:16:02;4.82;;;1.13;;
30000;SDS011;16845;48.670;9.000;2022-09-17T12:18:38;4.47;;;1.13;;
30000;SDS011;16845;48.670;9.000;2022-09-17T12:21:24;3.17;;;1.15;;
30000;SDS011;16845;48.670;9.000;2022-09-17T12:23:58;8.43;;;1.42;;
30000;SDS011;16845;48.670;9.000;2022-09-17T12:26:36;4.68;;;1.23;;
30000;SDS011;16845;48.670;9.000;2022-09-17T12:29:26;3.33;;;1.35;;
30000;SDS011;16845;48.670;9.000;2022-09-17T12:32:02;2.90;;;0.90;;
30000;SDS011;16845;48.670;9.000;2022-09-17T12:34:45;6.97;;;1.10;;
30000;SDS011;16845;48.670;9.000;2022-09-17T12:39:55;4.28;;;1.25;;
30000;SDS011;16845;48.670;9.000;2022-09-17T12:42:51;6.75;;;1.20;;
30000;SDS011;16845;48.670;9.000;2022-09-17T12:45:40;1.85;;;0.73;;
30000;SDS011;16845;48.670;9.000;2022-09-17T12:48:39;3.95;;;1.20;;
30000;SDS011;16845;48.670;9.000;2022-09-17T12:51:41;5.43;;;1.80;;
30000;SDS011;16845;48.670;9.000;2022-09-17T12:54:31;3.38;;;1.00;;
30000;SDS011;16845;48.670;9.000;2022-09-17T12:57:23;1.95;;;1.00;;
30000;SDS011;16845;48.670;9.000;2022-09-17T12:59:58;1.67;;;0.90;;
30000;SDS011;16845;48.670;9.000;2022-09-17T13:02:35;3.70;;;1.40;;
30000;SDS011;16845;48.670;9.000;2022-09-17T13:05:19;4.32;;;1.50;;
30000;SDS011;16845;48.670;9.000;2022-09-17T13:08:13;8.70;;;1.70;;
30000;SDS011;16845;48.670;9.000;2022-09-17T13:10:59;6.88;;;1.40;;
30000;SDS011;16845;48.670;9.000;2022-09-17T13:13:48;10.30;;;1.73;;
30000;SDS011;16845;48.670;9.000;2022-09-17T13:16:24;9.60;;;1.83;;
30000;SDS011;16845;48.670;9.000;2022-09-17T13:19:01;3.00;;;1.38;;
30000;SDS011;16845;48.670;9.000;2022-09-17T13:21:46;5.07;;;1.65;;
30000;SDS011;16845;48.670;9.000;2022-09-17T13:24:20;6.07;;;1.60;;
30000;SDS011;16845;48.670;9.000;2022-09-17T13:26:51;1.98;;;1.15;;
30000;SDS011;16845;48.670;9.000;2022-09-17T13:38:17;4.50;;;1.75;;
30000;SDS011;16845;48.670;9.000;2022-09-17T13:40:49;4.53;;;1.13;;
30000;SDS011;16845;48.670;9.000;2022-09-17T13:43:19;6.78;;;1.67;;
30000;SDS011;16845;48.670;9.000;2022-09-17T13:48:51;6.32;;;1.20;;
30000;SDS011;16845;48.670;9.000;2022-09-17T13:51:42;5.18;;;1.00;;
30000;SDS011;16845;48.670;9.000;2022-09-17T13:54:20;3.00;;;1.10;;
30000;SDS011;16845;48.670;9.000;2022-09-17T13:56:50;2.25;;;1.10;;
30000;SDS011;16845;48.670;9.000;2022-09-17T13:59:33;1.77;;;1.10;;
30000;SDS011;16845;48.670;9.000;2022-09-17T14:08:14;2.00;;;1.40;;
30000;SDS011;16845;48.670;9.000;2022-09-17T14:11:01;4.93;;;1.55;;
30000;SDS011;16845;48.670;9.000;2022-09-17T14:14:14;7.18;;;1.40;;
30000;SDS011;16845;48.670;9.000;2022-09-17T14:17:06;2.70;;;1.20;;
30000;SDS011;16845;48.670;9.000;2022-09-17T14:19:38;2.88;;;1.30;;
30000;SDS011;16845;48.670;9.000;2022-09-17T14:22:19;6.93;;;1.80;;
30000;SDS011;16845;48.670;9.000;2022-09-17T14:24:50;2.08;;;1.50;;
30000;SDS011;16845;48.670;9.000;2022-09-17T14:30:12;2.60;;;1.20;;
30000;SDS011;16845;48.670;9.000;2022-09-17T14:32:44;3.28;;;1.05;;
30000;SDS011;16845;48.670;9.000;2022-09-17T14:35:21;4.75;;;1.85;;
30000;SDS011;16845;48.670;9.000;2022-09-17T14:37:53;5.28;;;1.33;;
30000;SDS011;16845;48.670;9.000;2022-09-17T14:40:24;4.47;;;1.42;;
30000;SDS011;16845;48.670;9.000;2022-09-17T14:42:55;4.53;;;1.30;;
30000;SDS011;16845;48.670;9.000;2022-09-17T14:45:26;4.95;;;1.58;;
30000;SDS011;16845;48.670;9.000;2022-09-17T14:50:46;3.10;;;1.33;;
30000;SDS011;16845;48.670;9.000;2022-09-17T14:53:15;4.50;;;1.52;;
30000;SDS011;16845;48.670;9.000;2022-09-17T14:55:45;10.40;;;1.92;;
30000;SDS011;16845;48.670;9.000;2022-09-17T14:58:26;7.20;;;1.40;;
30000;SDS011;16845;48.670;9.000;2022-09-17T15:00:57;3.55;;;1.33;;
30000;SDS011;16845;48.670;9.000;2022-09-17T15:03:26;4.47;;;1.80;;
30000;SDS011;16845;48.670;9.000;2022-09-17T15:05:53;3.70;;;1.75;;
30000;SDS011;16845;48.670;9.000;2022-09-17T15:08:22;7.63;;;1.73;;
30000;SDS011;16845;48.670;9.000;2022-09-17T15:10:51;4.85;;;1.77;;
30000;SDS011;16845;48.670;9.000;2022-09-17T15:13:22;7.38;;;1.85;;
30000;SDS011;16845;48.670;9.000;2022-09-17T15:15:56;4.30;;;1.48;;
30000;SDS011;16845;48.670;9.000;2022-09-17T15:18:31;3.67;;;1.45;;
30000;SDS011;16845;48.670;9.000;2022-09-17T15:21:03;4.18;;;1.80;;
30000;SDS011;16845;48.670;9.000;2022-09-17T15:23:37;5.32;;;1.50;;
30000;SDS011;16845;48.670;9.000;2022-09-17T15:26:05;6.10;;;1.52;;
30000;SDS011;16845;48.670;9.000;2022-09-17T15:28:35;5.20;;;1.55;;
30000;SDS011;16845;48.670;9.000;2022-09-17T15:31:05;14.80;;;1.42;;
30000;SDS011;16845;48.670;9.000;2022-09-17T15:33:43;5.65;;;1.75;;
30000;SDS011;16845;48.670;9.000;2022-09-17T15:36:17;4.20;;;1.30;;
30000;SDS011;16845;48.670;9.000;2022-09-17T15:38:47;8.10;;;1.88;;
30000;SDS011;16845;48.670;9.000;2022-09-17T15:41:19;3.97;;;1.33;;
30000;SDS011;16845;48.670;9.000;2022-09-17T15:43:52;6.22;;;1.80;;
30000;SDS011;16845;48.670;9.000;2022-09-17T15:46:40;4.38;;;1.33;;
30000;SDS011;16845;48.670;9.000;2022-09-17T15:49:27;5.97;;;1.77;;
30000;SDS011;16845;48.670;9.000;2022-09-17T15:52:20;4.80;;;1.55;;
30000;SDS011;16845;48.670;9.000;2022-09-17T15:54:56;4.55;;;1.70;;
30000;SDS011;16845;48.670;9.000;2022-09-17T15:57:24;2.83;;;1.30;;
30000;SDS011;16845;48.670;9.000;2022-09-17T15:59:54;5.50;;;1.40;;
30000;SDS011;16845;48.670;9.000;2022-09-17T16:02:31;7.68;;;1.73;;